Time;durP1;ratioP1;P1;durP2;ratioP2;P2;SDS_P1;SDS_P2;PMS_P1;PMS_P2;Temp;Humidity;BMP_temperature;BMP_pressure;BME280_temperature;BME280_humidity;BME280_pressure;Samples;Min_cycle;Max_cycle;Signal;HPM_P1;HPM_P2
2020/12/06 00:01:43;;;;;;;31.95;16.42;;;-1.70;97.50;;;;;;5054920;28;20029;-76
2020/12/06 00:04:09;;;;;;;27.13;13.40;;;-1.70;97.50;;;;;;5036706;28;20379;-76
2020/12/06 00:06:36;;;;;;;30.58;15.00;;;-1.70;97.50;;;;;;5055010;28;20029;-76
2020/12/06 00:09:07;;;;;;;27.75;13.82;;;-1.70;97.50;;;;;;5037365;28;20052;-77
2020/12/06 00:11:33;;;;;;;32.40;14.73;;;-1.70;97.50;;;;;;5037415;28;20047;-77
2020/12/06 00:13:59;;;;;;;36.05;13.40;;;-1.70;97.50;;;;;;5055236;28;20094;-76
2020/12/06 00:16:25;;;;;;;25.92;13.48;;;-1.70;97.50;;;;;;5054781;28;20060;-77
2020/12/06 00:18:51;;;;;;;30.52;12.57;;;-1.70;97.50;;;;;;5055078;28;20052;-76
2020/12/06 00:21:19;;;;;;;22.65;12.20;;;-1.70;97.50;;;;;;5054596;28;20083;-76
2020/12/06 00:23:46;;;;;;;18.75;10.20;;;-1.70;97.40;;;;;;5054434;28;20181;-76
2020/12/06 00:26:21;;;;;;;28.85;10.98;;;-1.70;97.40;;;;;;5036117;28;20021;-76
2020/12/06 00:28:48;;;;;;;24.38;12.07;;;-1.70;97.50;;;;;;5054475;28;20024;-76
2020/12/06 00:31:14;;;;;;;26.88;12.93;;;-1.70;97.40;;;;;;5054110;28;20471;-76
2020/12/06 00:33:40;;;;;;;24.67;11.25;;;-1.80;97.30;;;;;;5054499;28;20056;-76
2020/12/06 00:36:09;;;;;;;24.67;14.05;;;-1.80;97.40;;;;;;5054362;28;20029;-76
2020/12/06 00:38:35;;;;;;;22.98;11.63;;;-1.80;97.40;;;;;;5036166;28;20497;-76
2020/12/06 00:41:01;;;;;;;25.23;11.63;;;-1.80;97.40;;;;;;5053983;28;20075;-76
2020/12/06 00:43:27;;;;;;;24.15;10.13;;;-1.80;97.40;;;;;;5054078;28;20037;-76
2020/12/06 00:45:52;;;;;;;21.38;9.43;;;-1.80;97.40;;;;;;5054062;28;20024;-76
2020/12/06 00:48:18;;;;;;;20.85;9.40;;;-1.80;97.40;;;;;;5054355;28;20063;-77
2020/12/06 00:50:44;;;;;;;20.10;8.65;;;-1.80;97.40;;;;;;5054171;28;20017;-77
2020/12/06 00:53:09;;;;;;;19.40;9.00;;;-1.80;97.40;;;;;;5054143;28;20021;-77
2020/12/06 00:55:35;;;;;;;21.00;10.48;;;-1.70;97.40;;;;;;5053994;28;20028;-76
2020/12/06 00:58:01;;;;;;;23.27;9.68;;;-1.80;97.30;;;;;;5053679;28;20025;-76
2020/12/06 01:00:26;;;;;;;20.52;10.38;;;-1.70;97.30;;;;;;5053661;28;20092;-76
2020/12/06 01:02:52;;;;;;;24.70;12.25;;;-1.80;97.30;;;;;;5053613;28;20104;-77
2020/12/06 01:05:18;;;;;;;28.42;11.80;;;-1.80;97.30;;;;;;5053363;28;20493;-76
2020/12/06 01:07:44;;;;;;;19.20;8.93;;;-1.70;97.30;;;;;;5053406;28;20415;-76
2020/12/06 01:10:11;;;;;;;16.00;7.50;;;-1.80;97.20;;;;;;5035646;28;20052;-76
2020/12/06 01:12:38;;;;;;;22.60;8.35;;;-1.80;97.20;;;;;;5053409;28;20071;-76
2020/12/06 01:15:08;;;;;;;20.65;8.82;;;-1.80;97.10;;;;;;5053339;28;20471;-77
2020/12/06 01:17:34;;;;;;;20.80;9.93;;;-1.80;97.10;;;;;;5053284;28;20100;-77
2020/12/06 01:20:00;;;;;;;28.17;10.55;;;-1.90;97.10;;;;;;5035348;28;20112;-77
2020/12/06 01:22:26;;;;;;;18.98;7.53;;;-1.90;97.10;;;;;;5053154;28;20032;-77
2020/12/06 01:24:51;;;;;;;22.55;9.50;;;-1.90;97.20;;;;;;5052850;28;20048;-77
2020/12/06 01:27:17;;;;;;;20.83;8.43;;;-1.90;97.20;;;;;;5035330;28;20025;-77
2020/12/06 01:29:43;;;;;;;15.88;7.95;;;-2.00;97.10;;;;;;5053128;28;20025;-77
2020/12/06 01:32:09;;;;;;;15.65;7.50;;;-2.00;97.10;;;;;;5053145;28;20025;-76
2020/12/06 01:34:35;;;;;;;14.13;7.82;;;-2.00;97.10;;;;;;5035264;28;20348;-77
2020/12/06 01:37:01;;;;;;;16.92;8.55;;;-2.00;97.10;;;;;;5052838;28;20024;-77
2020/12/06 01:39:26;;;;;;;15.23;8.27;;;-2.00;97.00;;;;;;5052126;28;20025;-77
2020/12/06 01:41:56;;;;;;;17.23;8.05;;;-2.00;97.00;;;;;;5053002;28;20356;-77
2020/12/06 01:44:26;;;;;;;15.50;7.78;;;-2.10;97.20;;;;;;5052690;28;20021;-76
2020/12/06 01:46:54;;;;;;;15.85;7.93;;;-2.10;97.00;;;;;;5053001;28;20463;-76
2020/12/06 01:49:21;;;;;;;18.35;7.85;;;-2.10;97.00;;;;;;5052937;28;20017;-76
2020/12/06 01:51:55;;;;;;;16.75;8.45;;;-2.10;97.00;;;;;;5052499;28;20071;-76
2020/12/06 01:54:22;;;;;;;12.65;6.30;;;-2.10;97.00;;;;;;5052874;28;20029;-77
2020/12/06 01:56:48;;;;;;;17.42;8.02;;;-2.10;97.00;;;;;;5052633;28;20177;-76
2020/12/06 01:59:13;;;;;;;22.73;8.43;;;-2.10;96.90;;;;;;5052400;28;20025;-77
2020/12/06 02:01:41;;;;;;;22.52;8.93;;;-2.20;96.90;;;;;;5052444;28;20371;-76
2020/12/06 02:04:07;;;;;;;17.67;8.40;;;-2.20;96.90;;;;;;5034655;28;20028;-76
2020/12/06 02:06:33;;;;;;;22.20;9.30;;;-2.20;96.90;;;;;;5034371;28;20025;-77
2020/12/06 02:08:59;;;;;;;20.40;9.15;;;-2.20;97.00;;;;;;5052311;28;20021;-77
2020/12/06 02:11:32;;;;;;;19.60;8.95;;;-2.20;97.00;;;;;;5034375;28;20090;-76
2020/12/06 02:13:58;;;;;;;14.57;7.22;;;-2.20;97.00;;;;;;5052443;28;20064;-76
2020/12/06 02:16:24;;;;;;;17.92;6.80;;;-2.20;96.90;;;;;;5052278;28;20021;-76
2020/12/06 02:18:50;;;;;;;13.95;6.80;;;-2.20;97.00;;;;;;5052255;28;20032;-76
2020/12/06 02:21:16;;;;;;;17.23;7.53;;;-2.20;96.90;;;;;;5052086;28;20047;-76
2020/12/06 02:23:42;;;;;;;16.25;6.68;;;-2.20;96.90;;;;;;5033946;28;20056;-76
2020/12/06 02:26:07;;;;;;;12.40;6.43;;;-2.20;96.90;;;;;;5052306;28;20025;-76
2020/12/06 02:28:33;;;;;;;12.40;6.70;;;-2.30;96.90;;;;;;5051939;28;20021;-76
2020/12/06 02:30:59;;;;;;;15.20;6.63;;;-2.30;96.80;;;;;;5052097;28;20471;-75
2020/12/06 02:33:24;;;;;;;11.43;6.35;;;-2.30;96.80;;;;;;5034107;28;20025;-74
2020/12/06 02:35:50;;;;;;;11.50;6.05;;;-2.30;96.80;;;;;;5052136;28;20513;-75
2020/12/06 02:38:16;;;;;;;13.75;6.38;;;-2.30;96.70;;;;;;5034070;28;20033;-75
2020/12/06 02:40:41;;;;;;;15.10;7.10;;;-2.30;96.70;;;;;;5051939;28;20104;-75
2020/12/06 02:43:07;;;;;;;15.18;6.55;;;-2.40;96.70;;;;;;5051955;28;20055;-75
2020/12/06 02:45:33;;;;;;;12.65;6.75;;;-2.40;96.70;;;;;;5052097;28;20532;-75
2020/12/06 02:47:59;;;;;;;13.45;7.03;;;-2.40;96.70;;;;;;5051962;28;20060;-75
2020/12/06 02:50:24;;;;;;;11.95;6.45;;;-2.40;96.70;;;;;;5051710;28;20481;-75
2020/12/06 02:52:51;;;;;;;16.08;7.47;;;-2.40;96.80;;;;;;5051869;28;20563;-75
2020/12/06 02:55:17;;;;;;;14.60;6.30;;;-2.40;96.70;;;;;;5051682;28;20032;-75
2020/12/06 02:57:43;;;;;;;11.80;6.25;;;-2.40;96.70;;;;;;5051796;28;20471;-75
2020/12/06 03:00:08;;;;;;;14.35;6.93;;;-2.40;96.70;;;;;;5051630;28;20024;-75
2020/12/06 03:02:34;;;;;;;17.88;7.30;;;-2.40;96.70;;;;;;5051512;28;20083;-75
2020/12/06 03:05:00;;;;;;;16.35;6.78;;;-2.40;96.70;;;;;;5051587;28;20422;-75
2020/12/06 03:07:25;;;;;;;16.33;7.90;;;-2.40;96.70;;;;;;5051459;28;20051;-76
2020/12/06 03:09:51;;;;;;;12.57;6.45;;;-2.40;96.70;;;;;;5051797;28;20083;-76
2020/12/06 03:12:17;;;;;;;14.25;7.35;;;-2.40;96.70;;;;;;5051701;28;20075;-76
2020/12/06 03:14:42;;;;;;;14.60;6.93;;;-2.40;96.60;;;;;;5051573;28;20033;-75
2020/12/06 03:17:08;;;;;;;17.10;7.07;;;-2.40;96.60;;;;;;5052030;28;20476;-76
2020/12/06 03:19:34;;;;;;;13.63;6.78;;;-2.40;96.60;;;;;;5033890;28;20032;-76
2020/12/06 03:21:59;;;;;;;13.13;6.80;;;-2.40;96.60;;;;;;5051803;28;20025;-77
2020/12/06 03:24:25;;;;;;;13.00;6.07;;;-2.40;96.60;;;;;;5033638;28;20441;-76
2020/12/06 03:26:51;;;;;;;14.30;7.18;;;-2.40;96.60;;;;;;5052133;28;20055;-76
2020/12/06 03:29:16;;;;;;;12.20;6.38;;;-2.40;96.50;;;;;;5051805;28;20029;-76
2020/12/06 03:31:42;;;;;;;14.32;7.60;;;-2.50;96.40;;;;;;5051864;28;20086;-76
2020/12/06 03:34:08;;;;;;;15.52;7.70;;;-2.50;96.40;;;;;;5051816;28;20107;-76
2020/12/06 03:36:33;;;;;;;12.88;6.85;;;-2.50;96.40;;;;;;5051584;28;20029;-76
2020/12/06 03:38:59;;;;;;;13.18;7.28;;;-2.50;96.40;;;;;;5051614;28;20041;-76
2020/12/06 03:41:25;;;;;;;16.40;6.90;;;-2.50;96.50;;;;;;5051516;28;20025;-76
2020/12/06 03:43:50;;;;;;;14.80;6.30;;;-2.60;96.40;;;;;;5051548;28;20459;-76
2020/12/06 03:46:16;;;;;;;12.27;6.88;;;-2.60;96.40;;;;;;5051636;28;20079;-76
2020/12/06 03:48:42;;;;;;;13.27;7.07;;;-2.60;96.40;;;;;;5051613;28;20036;-77
2020/12/06 03:51:07;;;;;;;12.10;6.68;;;-2.60;96.40;;;;;;5051547;28;20025;-77
2020/12/06 03:53:33;;;;;;;19.25;7.68;;;-2.60;96.40;;;;;;5051394;28;20037;-77
2020/12/06 03:55:59;;;;;;;16.92;7.82;;;-2.70;96.30;;;;;;5051367;28;20360;-77
2020/12/06 03:58:24;;;;;;;14.65;6.88;;;-2.70;96.20;;;;;;5051682;28;20091;-76
2020/12/06 04:00:50;;;;;;;12.77;6.50;;;-2.70;96.20;;;;;;5051458;28;20025;-76
2020/12/06 04:03:16;;;;;;;13.10;7.25;;;-2.80;96.10;;;;;;5036684;28;20021;-77
2020/12/06 04:05:41;;;;;;;10.80;6.32;;;-2.80;96.10;;;;;;5054997;28;20134;-77
2020/12/06 04:08:07;;;;;;;16.58;6.45;;;-2.80;96.00;;;;;;5054913;28;20028;-77
2020/12/06 04:10:33;;;;;;;12.50;6.00;;;-2.90;96.00;;;;;;5054726;28;20021;-78
2020/12/06 04:12:59;;;;;;;22.75;7.18;;;-2.80;96.10;;;;;;5054559;28;20046;-76
2020/12/06 04:15:24;;;;;;;15.52;7.68;;;-2.90;96.00;;;;;;5054434;28;20074;-77
2020/12/06 04:17:50;;;;;;;12.30;6.15;;;-2.90;96.00;;;;;;5036750;28;20037;-76
2020/12/06 04:20:16;;;;;;;13.27;6.30;;;-2.90;96.00;;;;;;5054373;28;20017;-77
2020/12/06 04:22:41;;;;;;;19.77;6.28;;;-2.90;96.10;;;;;;5036303;28;20478;-76
2020/12/06 04:25:07;;;;;;;15.23;6.47;;;-3.00;95.90;;;;;;5036279;28;20032;-75
2020/12/06 04:27:33;;;;;;;11.80;5.07;;;-3.00;95.80;;;;;;5054306;28;20379;-76
2020/12/06 04:29:58;;;;;;;8.93;5.65;;;-3.00;95.80;;;;;;5054263;28;20092;-75
2020/12/06 04:32:24;;;;;;;9.98;5.22;;;-3.10;95.80;;;;;;5036127;28;20035;-76
2020/12/06 04:34:50;;;;;;;13.63;6.15;;;-3.10;95.80;;;;;;5053937;28;20060;-76
2020/12/06 04:37:15;;;;;;;16.88;5.70;;;-3.10;95.80;;;;;;5053964;28;20025;-76
2020/12/06 04:39:41;;;;;;;21.75;6.40;;;-3.10;95.90;;;;;;5054138;28;20060;-76
2020/12/06 04:42:07;;;;;;;10.98;5.60;;;-3.10;96.00;;;;;;5054432;28;20032;-76
2020/12/06 04:44:32;;;;;;;10.13;5.55;;;-3.10;95.90;;;;;;5054252;28;20044;-77
2020/12/06 04:47:01;;;;;;;15.20;6.15;;;-3.10;95.90;;;;;;5054457;28;20021;-77
2020/12/06 04:49:42;;;;;;;13.77;5.82;;;-3.20;95.90;;;;;;5036573;28;20064;-76
2020/12/06 04:52:18;;;;;;;14.85;6.65;;;-3.10;95.80;;;;;;5036464;28;20051;-77
2020/12/06 04:54:51;;;;;;;9.05;5.13;;;-3.10;95.80;;;;;;5035947;28;20482;-76
2020/12/06 04:57:19;;;;;;;14.68;6.45;;;-3.20;95.70;;;;;;5036011;28;20051;-77
2020/12/06 04:59:46;;;;;;;15.05;6.57;;;-3.20;95.80;;;;;;5053672;28;20056;-76
2020/12/06 05:02:18;;;;;;;14.48;6.65;;;-3.20;95.80;;;;;;5053608;28;20033;-77
2020/12/06 05:04:47;;;;;;;14.68;8.13;;;-3.20;95.70;;;;;;5035431;28;20475;-77
2020/12/06 05:07:18;;;;;;;10.82;5.80;;;-3.20;95.70;;;;;;5053512;28;20060;-77
2020/12/06 05:09:48;;;;;;;15.90;6.63;;;-3.20;95.70;;;;;;5053698;28;20033;-77
2020/12/06 05:12:15;;;;;;;11.60;5.78;;;-3.20;95.80;;;;;;5053393;28;20048;-77
2020/12/06 05:14:40;;;;;;;16.90;6.43;;;-3.20;95.80;;;;;;5053477;28;20033;-77
2020/12/06 05:17:08;;;;;;;12.73;6.20;;;-3.20;95.70;;;;;;5053374;28;20029;-77
2020/12/06 05:19:33;;;;;;;18.95;7.20;;;-3.20;95.70;;;;;;5053627;28;20099;-77
2020/12/06 05:22:00;;;;;;;16.10;6.38;;;-3.20;95.70;;;;;;5053925;28;20037;-77
2020/12/06 05:24:26;;;;;;;13.48;6.15;;;-3.20;95.70;;;;;;5053233;28;20048;-77
2020/12/06 05:26:51;;;;;;;15.40;6.25;;;-3.20;95.70;;;;;;5053492;28;20079;-77
2020/12/06 05:29:17;;;;;;;13.88;6.78;;;-3.20;95.70;;;;;;5053312;28;20056;-78
2020/12/06 05:31:43;;;;;;;14.68;6.63;;;-3.20;95.70;;;;;;5053678;28;20025;-77
2020/12/06 05:34:08;;;;;;;16.08;6.35;;;-3.20;95.70;;;;;;5053358;28;20025;-77
2020/12/06 05:36:38;;;;;;;14.18;6.45;;;-3.20;95.60;;;;;;5053156;28;20025;-77
2020/12/06 05:39:04;;;;;;;15.73;6.43;;;-3.20;95.60;;;;;;5034914;28;20123;-77
2020/12/06 05:41:32;;;;;;;13.30;6.90;;;-3.20;95.70;;;;;;5052678;28;20067;-77
2020/12/06 05:44:04;;;;;;;20.02;7.30;;;-3.20;95.70;;;;;;5052854;28;20056;-77
2020/12/06 05:46:34;;;;;;;13.30;6.00;;;-3.20;95.70;;;;;;5052873;28;20052;-78
2020/12/06 05:49:03;;;;;;;12.20;4.60;;;-3.10;96.10;;;;;;5052635;28;20056;-78
2020/12/06 05:51:29;;;;;;;11.35;6.07;;;-2.90;96.40;;;;;;5052564;28;20017;-77
2020/12/06 05:53:56;;;;;;;15.43;6.35;;;-2.70;96.70;;;;;;5052766;28;20017;-77
2020/12/06 05:56:22;;;;;;;10.30;5.20;;;-2.40;96.80;;;;;;5052757;28;20037;-77
2020/12/06 05:58:49;;;;;;;18.17;6.65;;;-2.10;96.70;;;;;;5052654;28;20033;-77
2020/12/06 06:01:17;;;;;;;15.27;5.97;;;-1.90;96.90;;;;;;5052660;28;20110;-77
2020/12/06 06:03:46;;;;;;;14.13;6.30;;;-1.60;96.90;;;;;;5052527;28;20507;-78
2020/12/06 06:06:44;;;;;;;24.90;7.03;;;-1.40;96.80;;;;;;5052412;28;20021;-77
2020/12/06 06:09:15;;;;;;;16.67;7.50;;;-1.10;96.80;;;;;;5032915;28;20039;-77
2020/12/06 06:12:02;;;;;;;13.57;5.95;;;-0.80;96.50;;;;;;5052653;28;20021;-77
2020/12/06 06:14:28;;;;;;;17.83;7.60;;;-0.60;96.60;;;;;;5052894;28;20025;-77
2020/12/06 06:16:55;;;;;;;20.02;7.32;;;-0.40;96.40;;;;;;5052552;28;20064;-78
2020/12/06 06:19:22;;;;;;;13.60;6.50;;;-0.10;96.50;;;;;;5052626;28;20103;-77
2020/12/06 06:21:49;;;;;;;11.40;6.05;;;0.10;96.00;;;;;;5052303;28;20031;-77
2020/12/06 06:24:22;;;;;;;20.40;7.70;;;0.10;95.10;;;;;;5051714;28;20041;-77
2020/12/06 06:26:49;;;;;;;25.98;11.73;;;0.30;95.00;;;;;;5052362;28;20467;-77
2020/12/06 06:29:16;;;;;;;12.55;6.97;;;0.50;96.00;;;;;;5052125;28;20035;-77
2020/12/06 06:31:45;;;;;;;14.23;6.72;;;0.70;94.80;;;;;;5052069;28;20028;-77
2020/12/06 06:34:11;;;;;;;18.42;8.32;;;0.70;94.00;;;;;;5034421;28;20025;-77
2020/12/06 06:36:37;;;;;;;19.17;9.35;;;0.80;93.60;;;;;;5051714;28;20098;-77
2020/12/06 06:39:04;;;;;;;15.85;8.20;;;0.80;93.90;;;;;;5051617;28;20483;-77
2020/12/06 06:41:32;;;;;;;17.02;8.00;;;0.90;93.60;;;;;;5051815;28;20032;-78
2020/12/06 06:44:00;;;;;;;19.75;8.00;;;1.00;94.20;;;;;;5033900;28;20152;-77
2020/12/06 06:46:35;;;;;;;11.65;6.40;;;1.20;93.60;;;;;;5052023;28;20094;-77
2020/12/06 06:49:08;;;;;;;13.15;6.95;;;1.20;93.50;;;;;;5034339;28;20028;-77
2020/12/06 06:51:35;;;;;;;11.68;6.72;;;1.20;92.60;;;;;;5051952;28;20025;-77
2020/12/06 06:54:06;;;;;;;14.73;6.47;;;1.10;91.80;;;;;;5051745;28;20033;-77
2020/12/06 06:56:48;;;;;;;14.35;6.85;;;1.00;91.60;;;;;;5033846;28;20040;-77
2020/12/06 06:59:13;;;;;;;11.30;6.10;;;0.90;91.10;;;;;;5051628;28;20030;-78
2020/12/06 07:01:48;;;;;;;13.95;6.30;;;0.80;90.90;;;;;;5051509;28;20281;-76
2020/12/06 07:04:20;;;;;;;9.77;5.88;;;0.70;90.50;;;;;;5051359;28;20031;-77
2020/12/06 07:06:51;;;;;;;12.18;5.97;;;0.60;90.40;;;;;;5051437;28;20083;-77
2020/12/06 07:09:29;;;;;;;11.37;6.20;;;0.60;90.70;;;;;;5051459;28;20021;-78
2020/12/06 07:11:59;;;;;;;10.75;6.35;;;0.60;90.60;;;;;;5051401;28;20017;-77
2020/12/06 07:14:27;;;;;;;11.35;5.78;;;0.70;91.00;;;;;;5051593;28;20028;-77
2020/12/06 07:16:54;;;;;;;20.77;9.23;;;0.80;91.00;;;;;;5051280;28;20027;-78
2020/12/06 07:19:20;;;;;;;22.60;10.40;;;0.90;91.30;;;;;;5051287;28;20095;-78
2020/12/06 07:21:48;;;;;;;17.02;8.27;;;1.20;92.10;;;;;;5051347;28;20028;-78
2020/12/06 07:24:15;;;;;;;18.35;8.38;;;1.40;91.40;;;;;;5051917;28;20045;-78
2020/12/06 07:26:45;;;;;;;13.90;7.38;;;1.50;91.10;;;;;;5051326;28;20459;-77
2020/12/06 07:29:11;;;;;;;13.07;7.13;;;1.60;90.60;;;;;;5051340;28;20025;-77
2020/12/06 07:31:37;;;;;;;21.45;9.43;;;1.50;89.80;;;;;;5033533;28;20032;-77
2020/12/06 07:34:04;;;;;;;17.73;9.55;;;1.40;88.60;;;;;;5050985;28;20033;-76
2020/12/06 07:36:36;;;;;;;11.95;7.20;;;1.30;88.80;;;;;;5051738;28;20728;-78
2020/12/06 07:39:15;;;;;;;;;;;1.30;88.50;;;;;;5055726;28;20480;-77
2020/12/06 07:41:48;;;;;;;11.60;5.82;;;1.30;88.60;;;;;;5055391;28;19948;-77
2020/12/06 07:44:15;;;;;;;12.40;7.03;;;1.30;88.80;;;;;;5054519;28;20048;-77
2020/12/06 07:46:41;;;;;;;13.15;6.32;;;1.30;88.60;;;;;;5055039;28;20024;-77
2020/12/06 07:49:07;;;;;;;13.70;6.70;;;1.40;89.20;;;;;;5054941;28;20017;-76
2020/12/06 07:51:33;;;;;;;14.10;6.60;;;1.50;88.00;;;;;;5036666;28;20642;-78
2020/12/06 07:54:04;;;;;;;19.15;8.07;;;1.40;87.70;;;;;;5054659;28;20025;-78
2020/12/06 07:56:30;;;;;;;11.75;6.25;;;1.40;87.20;;;;;;5054492;28;20490;-78
2020/12/06 07:59:33;;;;;;;17.27;7.90;;;1.40;87.30;;;;;;5036391;28;20049;-77
2020/12/06 08:01:59;;;;;;;23.20;10.90;;;1.30;87.40;;;;;;4954266;29;20489;-78
2020/12/06 08:04:31;;;;;;;18.40;9.85;;;1.40;87.30;;;;;;5035814;28;20121;-77
2020/12/06 08:07:10;;;;;;;14.38;7.35;;;1.30;85.40;;;;;;5054173;28;20104;-77
2020/12/06 08:09:39;;;;;;;13.90;6.25;;;1.20;84.90;;;;;;5054577;28;20018;-78
2020/12/06 08:12:06;;;;;;;16.80;6.25;;;1.10;84.20;;;;;;5054218;28;20025;-78
2020/12/06 08:14:32;;;;;;;15.57;7.78;;;1.00;85.60;;;;;;5054312;28;20029;-78
2020/12/06 08:17:00;;;;;;;11.80;5.75;;;1.10;86.00;;;;;;5054411;28;20025;-77
2020/12/06 08:19:26;;;;;;;14.27;6.70;;;1.10;84.20;;;;;;5053992;28;20025;-78
2020/12/06 08:22:01;;;;;;;12.80;7.03;;;0.90;83.30;;;;;;5036167;28;20029;-78
2020/12/06 08:24:31;;;;;;;14.32;6.10;;;0.90;83.60;;;;;;5054004;28;20045;-78
2020/12/06 08:26:58;;;;;;;17.23;7.78;;;0.80;83.60;;;;;;5054224;28;20021;-79
2020/12/06 08:29:56;;;;;;;15.73;7.70;;;0.80;84.00;;;;;;5035939;28;20021;-78
2020/12/06 08:32:22;;;;;;;9.88;5.82;;;0.90;83.90;;;;;;4999434;28;20029;-79
2020/12/06 08:34:55;;;;;;;16.83;7.18;;;0.90;83.80;;;;;;5054503;28;20032;-78
2020/12/06 08:37:21;;;;;;;15.60;7.68;;;0.80;83.30;;;;;;5054346;28;20039;-79
2020/12/06 08:39:47;;;;;;;15.65;7.38;;;0.80;82.70;;;;;;5053933;28;20035;-78
2020/12/06 08:42:19;;;;;;;11.27;6.15;;;0.70;82.40;;;;;;5054072;28;20054;-80
2020/12/06 08:44:56;;;;;;;13.93;6.18;;;0.70;83.20;;;;;;5053656;28;20025;-79
2020/12/06 08:47:24;;;;;;;11.48;6.78;;;0.80;83.20;;;;;;5035518;28;20017;-79
2020/12/06 08:50:08;;;;;;;13.05;7.25;;;0.80;83.20;;;;;;5035845;28;20431;-80
2020/12/06 08:52:34;;;;;;;11.45;6.22;;;0.90;83.60;;;;;;5053859;28;20435;-78
2020/12/06 08:55:00;;;;;;;18.33;9.45;;;1.10;83.30;;;;;;5053396;28;20096;-78
2020/12/06 08:57:27;;;;;;;17.52;9.52;;;1.10;83.70;;;;;;5053565;28;20103;-79
2020/12/06 08:59:56;;;;;;;20.08;9.65;;;1.20;82.80;;;;;;5053908;28;20032;-77
2020/12/06 09:02:23;;;;;;;12.63;6.93;;;1.20;81.80;;;;;;5053368;28;20056;-78
2020/12/06 09:04:50;;;;;;;14.88;7.43;;;1.10;81.70;;;;;;5053133;28;20112;-79
2020/12/06 09:07:16;;;;;;;12.75;6.38;;;1.10;81.60;;;;;;5035285;28;20532;-79
2020/12/06 09:09:42;;;;;;;12.98;7.40;;;1.00;80.80;;;;;;5053386;28;20359;-79
2020/12/06 09:12:08;;;;;;;12.57;6.88;;;1.00;81.10;;;;;;5035193;28;20025;-79
2020/12/06 09:14:33;;;;;;;15.77;8.18;;;0.90;81.60;;;;;;5034570;28;20025;-79
2020/12/06 09:16:59;;;;;;;15.65;6.88;;;1.00;81.60;;;;;;5052997;28;20036;-78
2020/12/06 09:19:24;;;;;;;12.65;7.20;;;1.10;82.40;;;;;;5035975;28;20497;-79
2020/12/06 09:21:50;;;;;;;21.00;8.70;;;1.20;81.50;;;;;;5052383;28;20029;-78
2020/12/06 09:24:16;;;;;;;13.18;7.05;;;1.20;81.90;;;;;;5052583;28;20553;-79
2020/12/06 09:26:41;;;;;;;24.30;8.75;;;1.20;80.60;;;;;;5052862;28;20028;-79
2020/12/06 09:29:07;;;;;;;13.07;7.15;;;1.00;79.40;;;;;;5052631;28;20056;-79
2020/12/06 09:31:33;;;;;;;14.60;7.95;;;1.00;80.40;;;;;;5052330;28;20530;-80
2020/12/06 09:33:59;;;;;;;15.52;7.65;;;1.00;80.30;;;;;;5052711;28;20877;-79
2020/12/06 09:36:24;;;;;;;19.25;7.28;;;1.00;79.30;;;;;;5052356;28;20025;-79
2020/12/06 09:38:50;;;;;;;13.85;7.35;;;0.80;79.20;;;;;;5052602;28;20025;-79
2020/12/06 09:41:16;;;;;;;12.43;5.65;;;0.80;79.60;;;;;;5052004;28;20096;-77
2020/12/06 09:43:43;;;;;;;15.05;6.72;;;0.80;79.60;;;;;;5033484;28;20029;-75
2020/12/06 09:46:10;;;;;;;14.98;7.32;;;0.80;79.20;;;;;;5051086;28;20061;-78
2020/12/06 09:48:37;;;;;;;16.73;8.02;;;0.80;78.90;;;;;;5050967;28;20071;-76
2020/12/06 09:51:04;;;;;;;11.00;6.28;;;0.70;78.80;;;;;;5051499;28;20032;-76
2020/12/06 09:53:30;;;;;;;11.80;6.38;;;0.80;79.20;;;;;;5051334;28;20071;-77
2020/12/06 09:55:55;;;;;;;15.57;6.25;;;0.80;78.90;;;;;;5050855;28;20025;-77
2020/12/06 09:58:21;;;;;;;15.68;7.30;;;0.80;78.90;;;;;;5051122;28;20024;-77
2020/12/06 10:00:47;;;;;;;17.70;7.18;;;0.70;78.50;;;;;;5032342;28;20033;-77
2020/12/06 10:03:12;;;;;;;12.35;5.53;;;0.70;78.00;;;;;;5050712;28;20037;-76
2020/12/06 10:05:38;;;;;;;18.35;7.28;;;0.70;77.40;;;;;;5050470;28;20052;-80
2020/12/06 10:08:04;;;;;;;16.42;7.80;;;0.60;77.90;;;;;;5050489;28;20629;-80
2020/12/06 10:10:30;;;;;;;16.98;7.43;;;0.60;78.00;;;;;;5050792;28;20025;-74
2020/12/06 10:12:55;;;;;;;15.35;8.07;;;0.60;77.80;;;;;;5051136;28;20101;-77
2020/12/06 10:15:22;;;;;;;15.40;7.43;;;0.60;78.50;;;;;;5033245;28;20754;-79
2020/12/06 10:17:48;;;;;;;10.52;6.00;;;0.60;78.30;;;;;;5050556;28;20029;-78
2020/12/06 10:20:13;;;;;;;20.65;7.82;;;0.70;78.30;;;;;;5050276;28;20044;-78
2020/12/06 10:22:39;;;;;;;12.60;6.53;;;0.70;78.50;;;;;;5050548;28;20497;-77
2020/12/06 10:25:06;;;;;;;18.08;7.35;;;0.70;77.60;;;;;;5033053;28;20650;-79
2020/12/06 10:27:32;;;;;;;17.10;7.85;;;0.70;78.20;;;;;;5050607;28;20068;-77
2020/12/06 10:29:58;;;;;;;20.70;8.73;;;0.70;77.90;;;;;;5050307;28;20036;-75
2020/12/06 10:32:23;;;;;;;13.68;7.13;;;0.70;78.10;;;;;;5049981;28;20460;-76
2020/12/06 10:34:49;;;;;;;16.40;7.43;;;0.80;78.50;;;;;;5050304;28;20025;-77
2020/12/06 10:37:15;;;;;;;15.55;8.68;;;0.80;77.40;;;;;;5050120;28;20476;-79
2020/12/06 10:39:41;;;;;;;14.80;7.25;;;0.70;77.40;;;;;;5050117;28;20078;-77
2020/12/06 10:42:06;;;;;;;17.02;7.60;;;0.70;77.90;;;;;;5032827;28;20055;-78
2020/12/06 10:44:32;;;;;;;14.23;6.20;;;0.80;78.30;;;;;;5050844;28;20025;-77
2020/12/06 10:46:58;;;;;;;11.77;6.18;;;0.80;77.40;;;;;;5050285;28;20031;-78
2020/12/06 10:49:24;;;;;;;18.02;7.93;;;0.70;77.10;;;;;;5050432;28;20067;-79
2020/12/06 10:51:49;;;;;;;10.93;6.22;;;0.70;77.00;;;;;;5050676;28;20025;-77
2020/12/06 10:54:17;;;;;;;15.35;7.38;;;0.60;77.10;;;;;;5050518;28;20021;-76
2020/12/06 10:56:43;;;;;;;16.98;8.10;;;0.60;77.00;;;;;;5050571;28;20025;-76
2020/12/06 10:59:10;;;;;;;17.58;7.53;;;0.50;76.80;;;;;;5032400;28;20029;-76
2020/12/06 11:01:36;;;;;;;14.02;7.25;;;0.60;77.70;;;;;;5050313;28;20029;-78
2020/12/06 11:04:03;;;;;;;11.77;6.93;;;0.70;77.80;;;;;;5050230;28;20025;-75
2020/12/06 11:06:30;;;;;;;13.27;6.78;;;0.70;77.60;;;;;;5050300;28;20025;-76
2020/12/06 11:08:56;;;;;;;11.02;6.97;;;0.70;77.40;;;;;;5050442;28;20017;-74
2020/12/06 11:11:22;;;;;;;22.95;8.38;;;0.70;77.40;;;;;;5034781;28;20430;-77
2020/12/06 11:13:48;;;;;;;15.90;7.03;;;0.70;77.10;;;;;;5054313;28;20481;-77
2020/12/06 11:16:16;;;;;;;18.40;7.68;;;0.60;76.60;;;;;;5036327;28;20021;-75
2020/12/06 11:18:42;;;;;;;12.88;6.82;;;0.50;76.10;;;;;;5054268;28;20021;-77
2020/12/06 11:21:08;;;;;;;16.88;7.00;;;0.50;76.40;;;;;;5054179;28;20017;-76
2020/12/06 11:23:33;;;;;;;13.25;6.55;;;0.40;75.90;;;;;;5054223;28;20055;-76
2020/12/06 11:25:59;;;;;;;14.65;7.45;;;0.30;76.20;;;;;;5036806;28;20465;-75
2020/12/06 11:28:25;;;;;;;12.93;6.85;;;0.30;76.80;;;;;;5054323;28;20451;-76
2020/12/06 11:30:50;;;;;;;20.75;10.52;;;0.40;77.00;;;;;;5054193;28;20032;-76
2020/12/06 11:33:16;;;;;;;19.00;9.40;;;0.60;77.70;;;;;;5036258;28;20029;-76
2020/12/06 11:35:42;;;;;;;13.27;5.75;;;0.70;77.50;;;;;;5053812;28;20021;-80
2020/12/06 11:38:11;;;;;;;17.08;6.82;;;0.80;77.40;;;;;;5054669;28;20489;-80
2020/12/06 11:40:37;;;;;;;20.17;8.48;;;0.70;77.00;;;;;;5036716;28;20029;-78
2020/12/06 11:43:03;;;;;;;14.93;7.35;;;0.80;77.30;;;;;;5055326;28;20028;-82
2020/12/06 11:45:29;;;;;;;13.90;7.13;;;0.70;75.90;;;;;;5036535;28;20029;-78
2020/12/06 11:47:55;;;;;;;14.45;7.00;;;0.50;75.40;;;;;;5054041;28;20029;-76
2020/12/06 11:50:20;;;;;;;11.38;5.95;;;0.40;75.30;;;;;;5054095;28;20099;-76
2020/12/06 11:52:46;;;;;;;14.75;7.70;;;0.30;76.00;;;;;;5054012;28;20029;-76
2020/12/06 11:55:12;;;;;;;9.57;6.10;;;0.40;76.80;;;;;;5035910;28;20033;-76
2020/12/06 11:57:38;;;;;;;11.10;6.45;;;0.30;76.80;;;;;;5053767;28;20036;-78
2020/12/06 12:00:07;;;;;;;18.17;7.47;;;0.30;75.80;;;;;;5054107;28;20029;-76
2020/12/06 12:02:33;;;;;;;14.45;7.15;;;0.10;75.60;;;;;;5035760;28;20478;-75
2020/12/06 12:04:59;;;;;;;17.83;7.43;;;0.10;75.80;;;;;;5035206;28;20227;-77
2020/12/06 12:07:25;;;;;;;15.23;7.72;;;0.10;76.20;;;;;;5037775;28;20200;-76
2020/12/06 12:09:51;;;;;;;16.27;9.20;;;0.10;76.20;;;;;;5054083;28;20025;-77
2020/12/06 12:12:17;;;;;;;16.17;7.55;;;0.00;76.30;;;;;;5053430;28;20025;-77
2020/12/06 12:14:45;;;;;;;15.40;7.45;;;0.00;76.60;;;;;;5053256;28;20386;-76
2020/12/06 12:17:11;;;;;;;13.23;7.00;;;0.00;76.30;;;;;;5053322;28;20025;-76
2020/12/06 12:19:37;;;;;;;9.85;5.55;;;0.00;77.00;;;;;;5053629;28;20031;-77
2020/12/06 12:22:03;;;;;;;11.82;6.65;;;0.00;77.00;;;;;;5052690;28;20467;-76
2020/12/06 12:24:28;;;;;;;10.80;4.85;;;0.00;76.50;;;;;;5052740;28;20042;-76
2020/12/06 12:27:01;;;;;;;14.82;6.60;;;-0.10;76.50;;;;;;5035238;28;20116;-76
2020/12/06 12:29:27;;;;;;;11.25;6.05;;;-0.10;76.90;;;;;;5052946;28;20021;-76
2020/12/06 12:31:54;;;;;;;14.15;7.90;;;-0.10;77.10;;;;;;5034645;28;20033;-76
2020/12/06 12:34:19;;;;;;;13.27;7.15;;;-0.10;77.00;;;;;;5053006;28;20032;-77
2020/12/06 12:36:46;;;;;;;11.13;6.18;;;-0.20;76.90;;;;;;5053235;28;20029;-77
2020/12/06 12:39:12;;;;;;;9.88;5.88;;;-0.20;76.70;;;;;;5052979;28;20032;-77
2020/12/06 12:41:38;;;;;;;12.25;6.25;;;-0.30;76.40;;;;;;5052913;28;20025;-76